Time;durP1;ratioP1;P1;durP2;ratioP2;P2;SDS_P1;SDS_P2;PMS_P1;PMS_P2;Temp;Humidity;BMP_temperature;BMP_pressure;BME280_temperature;BME280_humidity;BME280_pressure;Samples;Min_cycle;Max_cycle;Signal;HPM_P1;HPM_P2
2023/08/02 00:01:48;;;;;;;7.07;2.35;;;17.20;99.90;;;;;;5095106;28;20204;-58
2023/08/02 00:04:16;;;;;;;6.60;2.28;;;17.20;99.90;;;;;;5097390;28;20233;-60
2023/08/02 00:06:44;;;;;;;7.57;2.38;;;17.30;99.90;;;;;;5106413;28;20232;-58
2023/08/02 00:09:12;;;;;;;11.05;2.42;;;17.20;99.90;;;;;;5101075;28;20227;-58
2023/08/02 00:11:42;;;;;;;6.97;3.03;;;17.30;99.90;;;;;;5103704;28;20200;-58
2023/08/02 00:14:10;;;;;;;8.95;2.42;;;17.30;99.90;;;;;;5105776;28;20283;-59
2023/08/02 00:16:37;;;;;;;10.10;2.15;;;17.30;99.90;;;;;;5095395;28;20751;-59
2023/08/02 00:19:05;;;;;;;7.60;2.30;;;17.30;99.90;;;;;;5100236;28;20238;-59
2023/08/02 00:21:33;;;;;;;9.23;2.17;;;17.30;99.90;;;;;;5104740;28;20246;-59
2023/08/02 00:24:01;;;;;;;9.73;2.50;;;17.30;99.90;;;;;;5104199;28;20239;-57
2023/08/02 00:26:29;;;;;;;8.23;2.15;;;17.20;99.90;;;;;;5096540;28;20668;-58
2023/08/02 00:28:58;;;;;;;4.90;2.45;;;17.20;99.90;;;;;;5109040;28;20314;-59
2023/08/02 00:31:26;;;;;;;3.35;2.30;;;17.20;99.90;;;;;;5099242;28;20933;-59
2023/08/02 00:33:54;;;;;;;7.28;2.47;;;17.20;99.90;;;;;;5101668;28;20632;-58
2023/08/02 00:36:22;;;;;;;3.88;1.85;;;17.30;99.90;;;;;;5106822;28;20204;-59
2023/08/02 00:38:50;;;;;;;5.82;2.28;;;17.30;99.90;;;;;;5095259;28;20227;-59
2023/08/02 00:41:18;;;;;;;9.02;2.60;;;17.30;99.90;;;;;;5106049;28;20723;-58
2023/08/02 00:43:47;;;;;;;6.53;2.17;;;17.30;99.90;;;;;;5101848;28;20279;-59
2023/08/02 00:46:17;;;;;;;7.00;2.03;;;17.30;99.90;;;;;;5098188;28;20228;-59
2023/08/02 00:48:46;;;;;;;3.35;1.88;;;17.30;99.90;;;;;;5108620;28;20750;-58
2023/08/02 00:51:15;;;;;;;8.68;2.20;;;17.30;99.90;;;;;;5097032;28;20199;-58
2023/08/02 00:53:43;;;;;;;13.20;2.40;;;17.30;99.90;;;;;;5102778;28;20287;-58
2023/08/02 00:56:11;;;;;;;9.43;2.17;;;17.30;99.90;;;;;;5104877;28;20200;-59
2023/08/02 00:58:39;;;;;;;8.05;2.05;;;17.30;99.90;;;;;;5095154;28;20315;-58
2023/08/02 01:01:07;;;;;;;7.63;2.13;;;17.30;99.90;;;;;;5107425;28;20200;-58
2023/08/02 01:03:37;;;;;;;3.75;1.85;;;17.30;99.90;;;;;;5100005;28;20644;-58
2023/08/02 01:06:09;;;;;;;8.15;2.22;;;17.30;99.90;;;;;;5099200;28;20236;-57
2023/08/02 01:08:37;;;;;;;9.43;2.10;;;17.30;99.90;;;;;;5106965;28;20219;-59
2023/08/02 01:11:07;;;;;;;10.50;2.17;;;17.30;99.90;;;;;;5095465;28;20223;-58
2023/08/02 01:13:35;;;;;;;4.93;2.22;;;17.30;99.90;;;;;;5103845;28;20192;-58
2023/08/02 01:16:04;;;;;;;7.15;2.10;;;17.30;99.90;;;;;;5102795;28;20238;-58
2023/08/02 01:18:32;;;;;;;6.40;2.03;;;17.30;99.90;;;;;;5095575;28;20220;-59
2023/08/02 01:21:01;;;;;;;6.18;2.00;;;17.30;99.90;;;;;;5094794;28;20218;-59
2023/08/02 01:23:29;;;;;;;7.55;2.35;;;17.30;99.90;;;;;;5104208;28;20231;-59
2023/08/02 01:25:57;;;;;;;3.22;1.80;;;17.30;99.90;;;;;;5102723;28;20244;-58
2023/08/02 01:28:25;;;;;;;7.20;2.20;;;17.20;99.90;;;;;;5096503;28;20301;-59
2023/08/02 01:30:53;;;;;;;11.30;2.13;;;17.20;99.90;;;;;;5108098;28;20286;-58
2023/08/02 01:33:21;;;;;;;6.43;2.08;;;17.20;99.90;;;;;;5091427;28;20227;-59
2023/08/02 01:35:49;;;;;;;5.72;1.80;;;17.20;99.90;;;;;;5101051;28;20731;-59
2023/08/02 01:38:19;;;;;;;5.18;2.03;;;17.20;99.90;;;;;;5097213;28;20303;-59
2023/08/02 01:40:47;;;;;;;5.95;2.28;;;17.20;99.90;;;;;;5108145;28;20199;-58
2023/08/02 01:43:14;;;;;;;6.10;1.98;;;17.20;99.90;;;;;;5093370;28;20270;-58
2023/08/02 01:45:42;;;;;;;10.63;2.47;;;17.20;99.90;;;;;;5095917;28;20204;-58
2023/08/02 01:48:10;;;;;;;5.45;1.88;;;17.20;99.90;;;;;;5104572;28;20216;-58
2023/08/02 01:50:38;;;;;;;4.88;1.85;;;17.20;99.90;;;;;;5094323;28;20208;-58
2023/08/02 01:53:06;;;;;;;4.05;1.90;;;17.20;99.90;;;;;;5108897;28;20217;-58
2023/08/02 01:55:35;;;;;;;3.17;2.10;;;17.30;99.90;;;;;;5102952;28;20291;-58
2023/08/02 01:58:03;;;;;;;4.82;2.10;;;17.20;99.90;;;;;;5103155;28;20224;-59
2023/08/02 02:00:31;;;;;;;5.50;1.70;;;17.30;99.90;;;;;;5095407;28;20250;-59
2023/08/02 02:02:59;;;;;;;4.93;1.80;;;17.30;99.90;;;;;;5103334;28;20787;-59
2023/08/02 02:05:27;;;;;;;2.97;1.85;;;17.30;99.90;;;;;;5108015;28;20192;-58
2023/08/02 02:07:55;;;;;;;3.97;1.60;;;17.30;99.90;;;;;;5105519;28;20302;-58
2023/08/02 02:10:23;;;;;;;2.42;1.63;;;17.30;99.90;;;;;;5100145;28;20273;-58
2023/08/02 02:12:52;;;;;;;6.93;2.15;;;17.40;99.90;;;;;;5111845;28;20199;-58
2023/08/02 02:15:20;;;;;;;4.78;1.88;;;17.40;99.90;;;;;;5100560;28;20199;-59
2023/08/02 02:17:48;;;;;;;6.32;1.95;;;17.40;99.90;;;;;;5105151;28;20197;-59
2023/08/02 02:20:16;;;;;;;4.88;1.52;;;17.40;99.90;;;;;;5094559;28;20223;-59
2023/08/02 02:22:44;;;;;;;3.50;1.90;;;17.40;99.90;;;;;;5111660;28;20204;-59
2023/08/02 02:25:12;;;;;;;3.15;1.50;;;17.40;99.90;;;;;;5099458;28;20294;-57
2023/08/02 02:27:39;;;;;;;5.25;2.00;;;17.40;99.90;;;;;;5105975;28;20248;-58
2023/08/02 02:30:10;;;;;;;4.50;2.40;;;17.40;99.90;;;;;;5107122;28;20215;-58
2023/08/02 02:32:38;;;;;;;2.88;1.92;;;17.40;99.90;;;;;;5097916;28;20722;-59
2023/08/02 02:35:07;;;;;;;4.60;1.95;;;17.40;99.90;;;;;;5110440;28;20211;-59
2023/08/02 02:37:35;;;;;;;2.92;1.88;;;17.30;99.90;;;;;;5102844;28;20278;-58
2023/08/02 02:40:03;;;;;;;4.78;2.00;;;17.30;99.90;;;;;;5102339;28;20221;-59
2023/08/02 02:42:31;;;;;;;5.03;2.28;;;17.30;99.90;;;;;;5110402;28;20199;-59
2023/08/02 02:44:59;;;;;;;5.07;1.95;;;17.30;99.90;;;;;;5097649;28;20231;-58
2023/08/02 02:47:28;;;;;;;5.47;2.28;;;17.30;99.90;;;;;;5106872;28;20224;-59
2023/08/02 02:49:56;;;;;;;2.80;1.90;;;17.30;99.90;;;;;;5105602;28;20220;-58
2023/08/02 02:52:24;;;;;;;2.85;2.05;;;17.30;99.90;;;;;;5099067;28;20208;-57
2023/08/02 02:54:52;;;;;;;2.83;2.00;;;17.30;99.90;;;;;;5110710;28;20671;-58
2023/08/02 02:57:20;;;;;;;5.15;2.33;;;17.20;99.90;;;;;;5099776;28;20601;-58
2023/08/02 02:59:48;;;;;;;6.13;2.05;;;17.20;99.90;;;;;;5104489;28;20256;-59
2023/08/02 03:02:16;;;;;;;6.88;2.45;;;17.20;99.90;;;;;;5097903;28;20253;-58
2023/08/02 03:04:45;;;;;;;5.63;1.90;;;17.10;99.90;;;;;;5099539;28;20204;-59
2023/08/02 03:07:13;;;;;;;3.72;2.17;;;17.10;99.90;;;;;;5102125;28;20766;-59
2023/08/02 03:09:41;;;;;;;1.98;1.50;;;17.10;99.90;;;;;;5104856;28;20787;-58
2023/08/02 03:12:09;;;;;;;5.32;1.85;;;17.00;99.90;;;;;;5106711;28;20249;-59
2023/08/02 03:14:37;;;;;;;4.55;2.10;;;17.00;99.90;;;;;;5096841;28;20204;-59
2023/08/02 03:17:05;;;;;;;3.58;1.90;;;17.00;99.90;;;;;;5109622;28;20618;-58
2023/08/02 03:19:33;;;;;;;3.95;1.85;;;17.00;99.90;;;;;;5089525;28;20251;-58
2023/08/02 03:22:02;;;;;;;3.92;2.13;;;17.00;99.90;;;;;;5101891;28;20279;-58
2023/08/02 03:24:30;;;;;;;4.70;1.80;;;17.00;99.90;;;;;;5109675;28;20742;-59
2023/08/02 03:26:59;;;;;;;3.00;1.60;;;17.10;99.90;;;;;;5096844;28;20214;-58
2023/08/02 03:29:27;;;;;;;5.90;2.30;;;17.00;99.90;;;;;;5106851;28;20332;-60
2023/08/02 03:31:55;;;;;;;2.20;1.60;;;17.00;99.90;;;;;;5099369;28;20648;-58
2023/08/02 03:34:22;;;;;;;4.07;2.00;;;17.00;99.90;;;;;;5108548;28;20286;-58
2023/08/02 03:36:50;;;;;;;5.30;1.60;;;16.90;99.90;;;;;;5096042;28;20279;-59
2023/08/02 03:39:20;;;;;;;2.75;1.88;;;16.90;99.90;;;;;;5107592;28;20277;-60
2023/08/02 03:41:48;;;;;;;3.28;1.65;;;17.00;99.90;;;;;;5103081;28;20734;-58
2023/08/02 03:44:16;;;;;;;9.55;2.10;;;17.00;99.90;;;;;;5099527;28;20287;-59
2023/08/02 03:46:43;;;;;;;3.53;2.05;;;16.90;99.90;;;;;;5109686;28;20287;-59
2023/08/02 03:49:12;;;;;;;3.33;1.67;;;16.90;99.90;;;;;;5097727;28;20241;-58
2023/08/02 03:51:40;;;;;;;4.00;1.77;;;16.90;99.90;;;;;;5104266;28;20284;-58
2023/08/02 03:54:09;;;;;;;3.40;1.70;;;16.90;99.90;;;;;;5105947;28;20297;-58
2023/08/02 03:56:38;;;;;;;5.97;1.92;;;16.90;99.90;;;;;;5096102;28;20791;-58
2023/08/02 03:59:06;;;;;;;2.90;1.75;;;16.90;99.90;;;;;;5108679;28;20266;-59
2023/08/02 04:01:34;;;;;;;7.15;2.13;;;16.90;99.90;;;;;;5099053;28;20282;-59
2023/08/02 04:04:02;;;;;;;5.63;2.45;;;16.90;99.90;;;;;;5100453;28;20200;-59
2023/08/02 04:06:30;;;;;;;8.32;2.00;;;16.80;99.90;;;;;;5093213;28;20196;-59
2023/08/02 04:08:58;;;;;;;6.20;1.83;;;16.80;99.90;;;;;;5089117;28;20247;-58
2023/08/02 04:11:25;;;;;;;5.15;2.00;;;16.80;99.90;;;;;;5091387;28;20667;-59
2023/08/02 04:13:55;;;;;;;1.90;1.80;;;16.80;99.90;;;;;;5090709;28;20204;-58
2023/08/02 04:16:23;;;;;;;3.05;2.00;;;16.80;99.90;;;;;;5086504;28;20255;-58
2023/08/02 04:18:51;;;;;;;5.93;2.15;;;16.80;99.90;;;;;;5088895;28;20223;-59
2023/08/02 04:21:19;;;;;;;4.85;2.00;;;16.80;99.90;;;;;;5083780;28;20583;-58
2023/08/02 04:23:49;;;;;;;2.78;2.00;;;16.80;99.90;;;;;;5097566;28;20513;-59
2023/08/02 04:26:17;;;;;;;5.35;1.83;;;16.80;99.90;;;;;;5104461;28;20666;-59
2023/08/02 04:28:45;;;;;;;5.18;2.22;;;16.80;99.90;;;;;;5098188;28;20266;-58
2023/08/02 04:31:15;;;;;;;2.60;2.10;;;16.90;99.90;;;;;;5107234;28;20592;-58
2023/08/02 04:33:43;;;;;;;5.65;2.33;;;16.90;99.90;;;;;;5101764;28;20636;-57
2023/08/02 04:36:11;;;;;;;4.60;2.15;;;16.90;99.90;;;;;;5098632;28;20257;-59
2023/08/02 04:38:39;;;;;;;2.70;2.25;;;16.90;99.90;;;;;;5108247;28;20243;-58
2023/08/02 04:41:07;;;;;;;2.50;2.05;;;16.90;99.90;;;;;;5095762;28;20615;-59
2023/08/02 04:43:34;;;;;;;6.45;2.50;;;16.90;99.90;;;;;;5104245;28;20610;-59
2023/08/02 04:46:02;;;;;;;2.75;2.42;;;16.90;99.90;;;;;;5103754;28;20237;-59
2023/08/02 04:48:31;;;;;;;2.20;2.00;;;16.90;99.90;;;;;;5096229;28;20223;-58
2023/08/02 04:50:59;;;;;;;4.95;2.03;;;16.90;99.90;;;;;;5108657;28;20283;-58
2023/08/02 04:53:27;;;;;;;5.93;2.13;;;17.00;99.90;;;;;;5092006;28;20667;-58
2023/08/02 04:55:55;;;;;;;7.22;2.50;;;16.90;99.90;;;;;;5081946;28;20201;-59
2023/08/02 04:58:23;;;;;;;5.03;2.35;;;16.90;99.90;;;;;;5076998;28;20201;-59
2023/08/02 05:00:51;;;;;;;6.75;2.60;;;16.90;99.90;;;;;;5095403;28;20212;-59
2023/08/02 05:03:19;;;;;;;5.30;1.95;;;16.90;99.90;;;;;;5085728;28;20195;-58
2023/08/02 05:05:49;;;;;;;3.75;2.00;;;17.00;99.90;;;;;;5101635;28;20223;-59
2023/08/02 05:08:17;;;;;;;4.70;2.08;;;17.00;99.90;;;;;;5106028;28;20205;-59
2023/08/02 05:10:45;;;;;;;5.40;2.35;;;17.00;99.90;;;;;;5094272;28;20293;-59
2023/08/02 05:13:13;;;;;;;3.88;2.50;;;17.00;99.90;;;;;;5106978;28;20228;-56
2023/08/02 05:15:41;;;;;;;9.00;2.60;;;17.00;99.90;;;;;;5092690;28;20679;-59
2023/08/02 05:18:09;;;;;;;4.63;2.28;;;17.00;99.90;;;;;;5091579;28;20571;-60
2023/08/02 05:20:37;;;;;;;4.88;2.30;;;17.00;99.90;;;;;;5089901;28;20258;-60
2023/08/02 05:23:06;;;;;;;6.93;2.38;;;17.00;99.90;;;;;;5091406;28;20242;-58
2023/08/02 05:25:34;;;;;;;4.72;2.50;;;17.00;99.90;;;;;;5090423;28;20283;-58
2023/08/02 05:28:02;;;;;;;3.53;2.00;;;17.00;99.90;;;;;;5089169;28;20557;-58
2023/08/02 05:30:30;;;;;;;4.95;2.40;;;17.00;99.90;;;;;;5095103;28;20304;-61
2023/08/02 05:32:58;;;;;;;7.35;2.60;;;17.00;99.90;;;;;;5097503;28;20204;-61
2023/08/02 05:35:26;;;;;;;7.30;2.80;;;17.00;99.90;;;;;;5100831;28;20646;-61
2023/08/02 05:37:54;;;;;;;4.97;2.63;;;17.00;99.90;;;;;;5100185;28;20239;-61
2023/08/02 05:40:24;;;;;;;6.68;2.17;;;16.90;99.90;;;;;;5099305;28;20247;-61
2023/08/02 05:42:52;;;;;;;4.82;2.70;;;16.90;99.90;;;;;;5098964;28;20686;-61
2023/08/02 05:45:19;;;;;;;5.82;2.40;;;17.00;99.90;;;;;;5102131;28;20658;-61
2023/08/02 05:47:50;;;;;;;5.30;2.80;;;17.00;99.90;;;;;;5099908;28;20236;-61
2023/08/02 05:50:18;;;;;;;7.43;2.72;;;17.00;99.90;;;;;;5095947;28;20235;-61
2023/08/02 05:52:46;;;;;;;3.17;2.20;;;16.90;99.90;;;;;;5095978;28;20204;-61
2023/08/02 05:55:14;;;;;;;4.25;2.50;;;16.90;99.90;;;;;;5088580;28;20299;-61
2023/08/02 05:57:43;;;;;;;5.88;3.03;;;16.90;99.90;;;;;;5093795;28;20552;-61
2023/08/02 06:00:12;;;;;;;3.22;2.47;;;16.90;99.90;;;;;;5099288;28;20224;-61
2023/08/02 06:02:40;;;;;;;3.00;2.55;;;16.90;99.90;;;;;;5093772;28;20734;-61
2023/08/02 06:05:08;;;;;;;3.13;2.20;;;16.90;99.90;;;;;;5098587;28;20687;-61
2023/08/02 06:07:36;;;;;;;6.45;2.92;;;16.80;99.90;;;;;;5096286;28;20235;-61
2023/08/02 06:10:05;;;;;;;4.72;2.47;;;16.80;99.90;;;;;;5100026;28;20221;-61
2023/08/02 06:12:33;;;;;;;3.72;2.70;;;16.80;99.90;;;;;;5104548;28;20249;-63
2023/08/02 06:15:02;;;;;;;5.38;2.65;;;16.80;99.90;;;;;;5102880;28;20246;-64
2023/08/02 06:17:30;;;;;;;4.25;2.83;;;16.80;99.90;;;;;;5095233;28;20224;-64
2023/08/02 06:19:59;;;;;;;5.55;2.58;;;16.80;99.90;;;;;;5094405;28;20314;-65
2023/08/02 06:22:28;;;;;;;4.35;2.25;;;16.80;99.90;;;;;;5110376;28;20200;-63
2023/08/02 06:24:56;;;;;;;5.90;2.90;;;16.80;99.90;;;;;;5097993;28;20264;-63
2023/08/02 06:27:25;;;;;;;3.25;2.95;;;16.80;99.90;;;;;;5100297;28;20199;-63
2023/08/02 06:29:53;;;;;;;5.13;2.58;;;16.80;99.90;;;;;;5092897;28;20224;-63
2023/08/02 06:32:22;;;;;;;4.72;3.00;;;16.80;99.90;;;;;;5099177;28;20246;-63
2023/08/02 06:34:50;;;;;;;7.05;3.83;;;16.80;99.90;;;;;;5101259;28;20197;-63
2023/08/02 06:37:18;;;;;;;7.70;3.80;;;16.80;99.90;;;;;;5111022;28;20236;-63
2023/08/02 06:39:46;;;;;;;6.80;3.75;;;16.80;99.90;;;;;;5098688;28;20252;-63
2023/08/02 06:42:14;;;;;;;6.35;4.07;;;16.80;99.90;;;;;;5107880;28;20694;-63
2023/08/02 06:44:42;;;;;;;7.50;4.30;;;16.70;99.90;;;;;;5097093;28;20201;-63
2023/08/02 06:47:10;;;;;;;7.25;4.05;;;16.70;99.90;;;;;;5096733;28;20199;-63
2023/08/02 06:49:39;;;;;;;7.28;4.32;;;16.60;99.90;;;;;;5093455;28;20219;-63
2023/08/02 06:52:08;;;;;;;5.35;4.70;;;16.60;99.90;;;;;;5098936;28;20259;-63
2023/08/02 06:54:36;;;;;;;6.43;4.00;;;16.60;99.90;;;;;;5098691;28;20288;-62
2023/08/02 06:57:04;;;;;;;8.60;3.63;;;16.60;99.90;;;;;;5093149;28;20198;-62
2023/08/02 06:59:32;;;;;;;4.75;3.10;;;16.60;99.90;;;;;;5106200;28;20267;-61
2023/08/02 07:01:59;;;;;;;4.35;3.22;;;16.50;99.90;;;;;;5098981;28;20205;-61
2023/08/02 07:04:27;;;;;;;4.82;3.30;;;16.50;99.90;;;;;;5090935;28;20239;-62
2023/08/02 07:06:57;;;;;;;4.80;3.10;;;16.50;99.90;;;;;;5098026;28;20200;-61
2023/08/02 07:09:27;;;;;;;4.60;3.10;;;16.50;99.90;;;;;;5092271;28;20303;-62
2023/08/02 07:11:55;;;;;;;3.80;3.00;;;16.50;99.90;;;;;;5095999;28;20204;-62
2023/08/02 07:14:23;;;;;;;5.75;3.30;;;16.60;99.90;;;;;;5108546;28;20228;-62
2023/08/02 07:16:51;;;;;;;2.95;2.83;;;16.60;99.90;;;;;;5096582;28;20258;-62
2023/08/02 07:19:19;;;;;;;4.95;3.22;;;16.60;99.90;;;;;;5101280;28;20899;-63
2023/08/02 07:21:47;;;;;;;4.78;3.40;;;16.70;99.90;;;;;;5103782;28;20245;-62
2023/08/02 07:24:16;;;;;;;3.60;2.97;;;16.60;99.90;;;;;;5107429;28;20204;-62
2023/08/02 07:26:44;;;;;;;6.80;3.13;;;16.60;99.90;;;;;;5095250;28;20236;-62
2023/08/02 07:29:12;;;;;;;3.90;3.05;;;16.60;99.90;;;;;;5107100;28;20267;-63
2023/08/02 07:31:39;;;;;;;2.85;2.63;;;16.60;99.90;;;;;;5102283;28;20219;-62
2023/08/02 07:34:08;;;;;;;3.55;3.13;;;16.60;99.90;;;;;;5100824;28;20287;-62
2023/08/02 07:36:36;;;;;;;3.75;3.03;;;16.70;99.90;;;;;;5109958;28;20200;-62
2023/08/02 07:39:04;;;;;;;4.82;3.17;;;16.70;99.90;;;;;;5097478;28;20274;-62
2023/08/02 07:41:33;;;;;;;4.10;2.80;;;16.80;99.90;;;;;;5105907;28;20193;-62
2023/08/02 07:44:01;;;;;;;4.45;2.97;;;16.80;99.90;;;;;;5105322;28;20231;-62
2023/08/02 07:46:29;;;;;;;3.33;2.80;;;16.90;99.90;;;;;;5097399;28;20259;-62
2023/08/02 07:48:57;;;;;;;6.97;2.97;;;16.90;99.90;;;;;;5110012;28;20216;-62
2023/08/02 07:51:25;;;;;;;5.75;3.25;;;17.00;99.90;;;;;;5099107;28;20212;-62
2023/08/02 07:53:53;;;;;;;3.58;3.25;;;17.00;99.90;;;;;;5102785;28;20208;-62
2023/08/02 07:56:21;;;;;;;3.92;3.53;;;17.00;99.90;;;;;;5107508;28;20288;-63
2023/08/02 07:58:50;;;;;;;3.95;2.90;;;17.10;99.90;;;;;;5096422;28;20263;-62
2023/08/02 08:01:18;;;;;;;2.90;2.80;;;17.10;99.90;;;;;;5107244;28;20193;-62
2023/08/02 08:03:46;;;;;;;4.68;3.13;;;17.20;99.90;;;;;;5103021;28;20200;-62
2023/08/02 08:06:15;;;;;;;8.45;3.50;;;17.20;99.90;;;;;;5098865;28;20687;-62
2023/08/02 08:08:43;;;;;;;3.75;2.72;;;17.10;99.90;;;;;;5108996;28;20234;-62
2023/08/02 08:11:11;;;;;;;3.30;3.00;;;17.10;99.90;;;;;;5097650;28;20273;-62
2023/08/02 08:13:39;;;;;;;6.55;3.15;;;17.20;99.90;;;;;;5103909;28;20288;-62
2023/08/02 08:16:08;;;;;;;4.20;2.47;;;17.10;99.90;;;;;;5105204;28;20630;-62
2023/08/02 08:18:36;;;;;;;3.50;3.15;;;17.20;99.90;;;;;;5095957;28;20645;-62
2023/08/02 08:21:05;;;;;;;4.05;3.35;;;17.10;99.90;;;;;;5096687;28;20721;-63
2023/08/02 08:23:33;;;;;;;4.47;2.92;;;17.10;99.90;;;;;;5104771;28;20321;-62
2023/08/02 08:26:01;;;;;;;4.25;3.45;;;17.10;99.90;;;;;;5104244;28;20200;-62
2023/08/02 08:28:29;;;;;;;4.55;3.50;;;17.20;99.90;;;;;;5096371;28;20303;-63
2023/08/02 08:31:00;;;;;;;5.53;3.65;;;17.20;99.90;;;;;;5109413;28;20303;-62
2023/08/02 08:33:30;;;;;;;5.18;3.38;;;17.30;99.90;;;;;;5099759;28;20234;-62
2023/08/02 08:35:58;;;;;;;3.72;3.42;;;17.30;99.90;;;;;;5100846;28;20196;-62
2023/08/02 08:38:26;;;;;;;4.78;3.20;;;17.30;99.90;;;;;;5107529;28;20256;-62
2023/08/02 08:40:54;;;;;;;3.40;2.90;;;17.40;99.90;;;;;;5095603;28;20245;-62
2023/08/02 08:43:25;;;;;;;4.18;3.45;;;17.30;99.90;;;;;;5106063;28;20196;-62
2023/08/02 08:45:53;;;;;;;2.85;2.67;;;17.40;99.90;;;;;;5102982;28;20250;-62
2023/08/02 08:48:22;;;;;;;3.30;3.10;;;17.30;99.90;;;;;;5097081;28;20204;-62
2023/08/02 08:50:52;;;;;;;4.35;3.00;;;17.30;99.90;;;;;;5108622;28;20223;-62
2023/08/02 08:53:23;;;;;;;3.60;3.03;;;17.30;99.90;;;;;;5097811;28;20323;-62
2023/08/02 08:55:51;;;;;;;4.85;3.22;;;17.20;99.90;;;;;;5101699;28;20317;-62
2023/08/02 08:58:19;;;;;;;3.80;2.83;;;17.20;99.90;;;;;;5106006;28;20204;-62
2023/08/02 09:00:47;;;;;;;3.63;3.00;;;17.20;99.90;;;;;;5119422;22;20267;-75
2023/08/02 09:03:15;;;;;;;2.75;2.55;;;17.20;99.90;;;;;;5112347;28;20204;-75
2023/08/02 09:05:43;;;;;;;2.67;2.35;;;17.20;99.90;;;;;;5102913;28;20232;-75
2023/08/02 09:08:12;;;;;;;4.00;2.50;;;17.20;99.90;;;;;;5105264;28;20250;-75
2023/08/02 09:10:40;;;;;;;3.22;2.75;;;17.20;99.90;;;;;;5111180;28;20192;-74
2023/08/02 09:13:21;;;;;;;3.10;2.80;;;17.20;99.90;;;;;;5092104;28;20188;-75
2023/08/02 09:16:07;;;;;;;3.40;2.50;;;17.20;99.90;;;;;;5091488;28;20196;-75
2023/08/02 09:18:36;;;;;;;2.63;2.50;;;17.20;99.90;;;;;;5091609;28;20224;-75
2023/08/02 09:21:04;;;;;;;3.33;2.80;;;17.20;99.90;;;;;;5091849;28;20258;-75
2023/08/02 09:23:33;;;;;;;3.92;2.63;;;17.20;99.90;;;;;;5099656;28;20625;-75
2023/08/02 09:26:11;;;;;;;4.68;2.22;;;17.20;99.90;;;;;;5111724;28;20745;-75
2023/08/02 09:28:39;;;;;;;2.50;2.30;;;17.10;99.90;;;;;;5112008;28;20227;-75
2023/08/02 09:31:16;;;;;;;4.45;2.95;;;17.20;99.90;;;;;;5107805;28;20265;-75
2023/08/02 09:33:51;;;;;;;4.38;2.78;;;17.20;99.90;;;;;;5101456;28;20223;-75
2023/08/02 09:36:26;;;;;;;3.10;2.85;;;17.20;99.90;;;;;;5097481;28;20231;-75
2023/08/02 09:39:03;;;;;;;2.63;2.47;;;17.20;99.90;;;;;;5091315;28;20227;-75
2023/08/02 09:41:32;;;;;;;3.53;2.80;;;17.20;99.90;;;;;;5091679;28;20195;-75
2023/08/02 09:44:20;;;;;;;3.10;2.78;;;17.30;99.90;;;;;;5106111;28;20203;-75
2023/08/02 09:46:48;;;;;;;3.08;2.28;;;17.20;99.90;;;;;;5110340;28;20223;-75
2023/08/02 09:49:19;;;;;;;3.95;2.83;;;17.30;99.90;;;;;;5097389;28;20216;-75
2023/08/02 09:51:47;;;;;;;3.45;2.72;;;17.30;99.90;;;;;;5101735;28;20213;-75
2023/08/02 09:54:17;;;;;;;2.70;2.60;;;17.30;99.90;;;;;;5105436;28;20231;-75
2023/08/02 09:56:45;;;;;;;3.17;2.75;;;17.30;99.90;;;;;;5110653;28;20188;-75
2023/08/02 09:59:13;;;;;;;2.95;2.75;;;17.30;99.90;;;;;;5096535;28;20284;-75
2023/08/02 10:01:40;;;;;;;3.45;3.05;;;17.40;99.90;;;;;;5111726;28;20184;-75
2023/08/02 10:04:10;;;;;;;3.08;2.92;;;17.40;99.90;;;;;;5111817;28;20196;-75
2023/08/02 10:06:39;;;;;;;3.40;3.00;;;17.50;99.90;;;;;;5094448;28;20572;-75
2023/08/02 10:09:08;;;;;;;3.80;2.55;;;17.50;99.90;;;;;;5107571;28;20212;-75
2023/08/02 10:11:39;;;;;;;2.50;2.30;;;17.50;99.90;;;;;;5099671;28;20212;-75
2023/08/02 10:14:07;;;;;;;3.00;2.80;;;17.60;99.90;;;;;;5112899;28;20663;-75
2023/08/02 10:16:35;;;;;;;2.47;2.25;;;17.50;99.90;;;;;;5115596;28;20231;-75
2023/08/02 10:19:03;;;;;;;2.75;2.55;;;17.60;99.90;;;;;;5102714;28;20591;-75
2023/08/02 10:21:31;;;;;;;3.90;2.67;;;17.60;99.90;;;;;;5115214;28;20603;-75
2023/08/02 10:23:59;;;;;;;2.95;2.45;;;17.70;99.90;;;;;;5103242;28;20746;-75
2023/08/02 10:26:28;;;;;;;5.90;3.22;;;17.70;99.90;;;;;;5110616;28;20279;-75
2023/08/02 10:28:58;;;;;;;4.70;2.83;;;17.70;99.90;;;;;;5095302;28;20274;-75
2023/08/02 10:31:26;;;;;;;2.78;2.55;;;17.80;99.90;;;;;;5095029;28;20199;-75
2023/08/02 10:33:54;;;;;;;3.15;2.88;;;17.80;99.90;;;;;;5094678;28;20734;-75
2023/08/02 10:36:23;;;;;;;3.22;3.00;;;17.90;99.90;;;;;;5109785;28;20199;-75
2023/08/02 10:38:52;;;;;;;4.05;2.75;;;17.90;99.90;;;;;;5114775;28;20310;-75
2023/08/02 10:41:21;;;;;;;3.22;3.03;;;18.00;99.90;;;;;;5115201;28;20199;-75
2023/08/02 10:44:12;;;;;;;4.15;2.95;;;18.10;99.90;;;;;;5114638;28;20188;-75
2023/08/02 10:46:40;;;;;;;3.10;2.90;;;18.10;99.90;;;;;;5107227;28;20204;-75
2023/08/02 10:49:45;;;;;;;2.53;2.20;;;18.20;99.90;;;;;;5099017;28;20215;-75
2023/08/02 10:52:23;;;;;;;2.58;2.38;;;18.20;99.90;;;;;;5114420;28;20203;-75
2023/08/02 10:55:08;;;;;;;2.90;2.70;;;18.30;99.90;;;;;;5112339;28;20204;-75
2023/08/02 10:57:36;;;;;;;4.05;2.45;;;18.40;99.90;;;;;;5102834;28;20727;-75
2023/08/02 11:00:18;;;;;;;2.33;2.22;;;18.40;99.90;;;;;;5101966;28;20200;-74
2023/08/02 11:02:48;;;;;;;2.58;2.38;;;18.50;99.90;;;;;;5095788;28;20212;-75
2023/08/02 11:05:18;;;;;;;3.13;2.15;;;18.50;99.90;;;;;;5114430;28;20203;-75
2023/08/02 11:07:59;;;;;;;3.40;2.13;;;18.50;99.90;;;;;;5104845;28;20223;-75
2023/08/02 11:10:28;;;;;;;2.45;2.22;;;18.50;99.90;;;;;;5109630;28;20203;-75
2023/08/02 11:12:56;;;;;;;1.88;1.88;;;18.50;99.90;;;;;;5114002;28;20204;-75
2023/08/02 11:15:25;;;;;;;2.15;2.05;;;18.50;99.90;;;;;;5107632;28;20220;-75
2023/08/02 11:17:56;;;;;;;2.30;2.20;;;18.50;99.90;;;;;;5093661;28;20281;-75
2023/08/02 11:20:26;;;;;;;2.30;1.85;;;18.50;99.90;;;;;;5093664;28;20197;-75
2023/08/02 11:22:54;;;;;;;2.25;2.08;;;18.50;99.90;;;;;;5093452;28;20633;-75
2023/08/02 11:25:21;;;;;;;2.13;2.00;;;18.50;99.90;;;;;;5093632;28;20200;-75
2023/08/02 11:28:02;;;;;;;2.63;2.10;;;18.50;99.90;;;;;;5093708;28;20305;-76
2023/08/02 11:30:33;;;;;;;1.60;1.50;;;18.60;99.90;;;;;;5109589;28;20207;-75
2023/08/02 11:33:01;;;;;;;2.03;1.83;;;18.60;99.90;;;;;;5110260;28;20270;-75
2023/08/02 11:35:29;;;;;;;1.80;1.70;;;18.60;99.90;;;;;;5093716;28;20279;-75
2023/08/02 11:37:57;;;;;;;2.17;1.80;;;18.60;99.90;;;;;;5093403;28;20289;-75
2023/08/02 11:40:34;;;;;;;3.42;1.67;;;18.60;99.90;;;;;;5108569;28;20660;-75
2023/08/02 11:43:02;;;;;;;1.88;1.40;;;18.60;99.90;;;;;;5080663;28;20180;-75
2023/08/02 11:45:35;;;;;;;2.58;1.75;;;18.70;99.90;;;;;;5105865;28;20211;-75
2023/08/02 11:48:04;;;;;;;1.63;1.50;;;18.70;99.90;;;;;;5093402;28;20227;-75
2023/08/02 11:50:38;;;;;;;2.03;1.90;;;18.70;99.90;;;;;;5111069;28;20223;-75
2023/08/02 11:53:06;;;;;;;1.90;1.80;;;18.70;99.90;;;;;;5113570;28;20295;-75
2023/08/02 11:55:35;;;;;;;2.10;2.00;;;18.60;99.90;;;;;;5105414;28;20184;-75
2023/08/02 11:58:04;;;;;;;2.10;2.00;;;18.60;99.90;;;;;;5105998;22;20232;-60
2023/08/02 12:00:34;;;;;;;1.70;1.48;;;18.60;99.90;;;;;;5105686;28;20215;-57
2023/08/02 12:03:10;;;;;;;3.42;1.75;;;18.60;99.90;;;;;;5106338;28;20238;-60
2023/08/02 12:05:38;;;;;;;3.35;1.73;;;18.60;99.90;;;;;;5098409;28;20240;-60
2023/08/02 12:08:10;;;;;;;2.28;1.48;;;18.60;99.90;;;;;;5096976;28;20821;-60
2023/08/02 12:10:39;;;;;;;1.42;1.40;;;18.60;99.90;;;;;;5106358;28;20219;-61
2023/08/02 12:13:11;;;;;;;2.05;1.60;;;18.70;99.90;;;;;;5093530;28;20291;-59
2023/08/02 12:15:40;;;;;;;2.00;1.90;;;18.70;99.90;;;;;;5100780;28;20196;-60
2023/08/02 12:18:09;;;;;;;1.67;1.58;;;18.70;99.90;;;;;;5093577;28;20258;-59
2023/08/02 12:20:37;;;;;;;1.45;1.45;;;18.70;99.90;;;;;;5105995;28;20264;-60
2023/08/02 12:23:06;;;;;;;1.60;1.50;;;18.80;99.90;;;;;;5092957;28;20195;-59
2023/08/02 12:25:45;;;;;;;1.55;1.55;;;18.90;99.90;;;;;;5101258;28;20192;-59
2023/08/02 12:28:14;;;;;;;1.80;1.70;;;18.90;99.90;;;;;;5103166;28;20195;-60
2023/08/02 12:31:02;;;;;;;2.13;1.88;;;19.00;99.90;;;;;;5092990;28;20306;-60
2023/08/02 12:33:31;;;;;;;1.58;1.48;;;19.10;99.90;;;;;;5101727;28;20212;-61
2023/08/02 12:35:59;;;;;;;1.30;1.30;;;19.20;99.90;;;;;;5100019;28;20732;-61
2023/08/02 12:38:29;;;;;;;1.95;1.58;;;19.30;99.90;;;;;;5093509;28;20270;-60
2023/08/02 12:40:57;;;;;;;1.35;1.35;;;19.30;99.90;;;;;;5105921;28;20219;-60
2023/08/02 12:43:26;;;;;;;5.32;1.73;;;19.40;99.90;;;;;;5095996;28;20603;-60
2023/08/02 12:45:53;;;;;;;2.85;1.58;;;19.40;99.90;;;;;;5098009;28;20236;-61
2023/08/02 12:48:23;;;;;;;1.95;1.50;;;19.50;99.90;;;;;;5103832;28;20582;-60
2023/08/02 12:50:51;;;;;;;1.70;1.60;;;19.60;99.90;;;;;;5092382;28;20336;-60
2023/08/02 12:53:18;;;;;;;3.38;1.73;;;19.80;99.90;;;;;;5103098;28;20251;-59
2023/08/02 12:55:46;;;;;;;1.92;1.85;;;19.90;99.90;;;;;;5098428;28;20680;-59